Home > Products > Valid Products > TAF

000
FTUS43 KGLD 130824 AAA
TAFGLD
TAF AMD
KGLD 130824Z 1308/1406 14010G20KT P6SM OVC007
     FM131000 14010KT 3SM -FZDZ BR OVC003
     FM131200 16015KT 2SM BR OVC003
     FM131600 17011KT P6SM OVC011
     FM140200 19007KT P6SM BKN250=



000
FTUS43 KGLD 130526
TAFGLD
TAF
KGLD 130526Z 1306/1406 14010G20KT P6SM OVC007
     FM130800 14010KT 3SM -FZDZ BR OVC003
     FM131200 16015KT 2SM BR OVC003
     FM131600 17011KT P6SM OVC011
     FM140200 19007KT P6SM BKN250=



000
FTUS43 KGLD 130526
TAFMCK
TAF
KMCK 130526Z 1306/1406 11012KT 1/4SM FG VV002
     FM130900 13012G17KT 1SM -FZDZ BR OVC003
     FM131500 14014G21KT 2SM BR OVC006
     FM131800 15015G23KT P6SM OVC008
     FM140400 21004KT P6SM SKC=



000
FTUS43 KGLD 130526
TAFGLD
TAF
KGLD 130526Z 1306/1406 14010G20KT P6SM OVC007
     FM130800 14010KT 3SM -FZDZ BR OVC003
     FM131200 16015KT 2SM BR OVC003
     FM131600 17011KT P6SM OVC011
     FM140200 19007KT P6SM BKN250=



000
FTUS43 KGLD 130526
TAFMCK
TAF
KMCK 130526Z 1306/1406 11012KT 1/4SM FG VV002
     FM130900 13012G17KT 1SM -FZDZ BR OVC003
     FM131500 14014G21KT 2SM BR OVC006
     FM131800 15015G23KT P6SM OVC008
     FM140400 21004KT P6SM SKC=



000
FTUS43 KGLD 130319 AAB
TAFMCK
TAF AMD
KMCK 130319Z 1303/1324 11007KT 1/4SM FG VV002
     FM130500 13012G17KT 1/2SM -FZDZ FG OVC002
     FM131000 13012G17KT 3SM -FZDZ BR OVC003
     FM131500 14014G21KT 2SM BR OVC006
     FM131800 15015G23KT P6SM OVC008=



000
FTUS43 KGLD 130211 AAA
TAFMCK
TAF AMD
KMCK 130211Z 1302/1324 11007KT 1 1/2SM BR OVC007
     FM130500 13012G17KT 1SM -FZDZ BR OVC003
     FM131000 13012G17KT 3SM -FZDZ BR OVC003
     FM131500 14014G21KT 2SM BR OVC006
     FM131800 15015G23KT P6SM OVC008=



000
FTUS43 KGLD 130211 AAA
TAFMCK
TAF AMD
KMCK 130211Z 1302/1324 11007KT 1 1/2SM BR OVC007
     FM130500 13012G17KT 1SM -FZDZ BR OVC003
     FM131000 13012G17KT 3SM -FZDZ BR OVC003
     FM131500 14014G21KT 2SM BR OVC006
     FM131800 15015G23KT P6SM OVC008=



000
FTUS43 KGLD 130211 AAA
TAFMCK
TAF AMD
KMCK 130211Z 1302/1324 11007KT 1 1/2SM BR OVC007
     FM130500 13012G17KT 1SM -FZDZ BR OVC003
     FM131000 13012G17KT 3SM -FZDZ BR OVC003
     FM131500 14014G21KT 2SM BR OVC006
     FM131800 15015G23KT P6SM OVC008=



000
FTUS43 KGLD 122320
TAFMCK
TAF
KMCK 122320Z 1300/1324 08009KT P6SM OVC017
      TEMPO 1300/1302 OVC010
     FM130200 11007KT 6SM BR OVC006
     FM130500 13012G17KT 5SM -FZDZ BR OVC003
     FM131000 13012G17KT 3SM -FZDZ BR OVC003
     FM131500 14014G21KT 2SM BR OVC006
     FM131800 15015G23KT P6SM OVC008=



000
FTUS43 KGLD 122320
TAFGLD
TAF
KGLD 122320Z 1300/1324 11011KT P6SM OVC005
     FM130100 11010KT 6SM BR OVC005
     FM130400 13012KT 3SM -FZDZ BR OVC003
     FM130900 16015KT 2SM BR OVC003
     FM131600 17011KT P6SM OVC011=



000
FTUS43 KGLD 122203 AAA
TAFMCK
TAF AMD
KMCK 122203Z 1222/1318 08005KT P6SM OVC020
      TEMPO 1300/1302 OVC010
     FM130200 11007KT 6SM BR OVC006
     FM130500 13012G17KT 5SM -FZDZ BR OVC003
     FM131000 13012G17KT 3SM -FZDZ BR OVC003
     FM131500 14014G21KT 2SM BR OVC006=



000
FTUS43 KGLD 122033 AAB
TAFGLD
TAF AMD
KGLD 122033Z 1221/1318 10011KT P6SM OVC007
     FM130100 11010KT 6SM BR OVC006
     FM130400 13012KT 3SM -FZDZ BR OVC003
     FM130900 16015KT 2SM BR OVC003
     FM131600 17013KT P6SM BKN015=



000
FTUS43 KGLD 121845 AAA
TAFGLD
TAF AMD
KGLD 121845Z 1219/1318 11008KT P6SM SCT015 OVC100
     FM122000 10011KT P6SM BKN015
     FM130100 11010KT 6SM BR OVC008
     FM130400 13012KT 3SM -FZDZ BR OVC003
     FM130900 16015KT 2SM BR OVC003
     FM131600 17013KT P6SM BKN015=



000
FTUS43 KGLD 121845 AAA
TAFGLD
TAF AMD
KGLD 121845Z 1219/1318 11008KT P6SM SCT015 OVC100
     FM122000 10011KT P6SM BKN015
     FM130100 11010KT 6SM BR OVC008
     FM130400 13012KT 3SM -FZDZ BR OVC003
     FM130900 16015KT 2SM BR OVC003
     FM131600 17013KT P6SM BKN015=



000
FTUS43 KGLD 121739
TAFMCK
TAF
KMCK 121739Z 1218/1318 08005KT P6SM OVC015
      TEMPO 1218/1220 OVC010
     FM130100 11007KT 6SM BR OVC006
     FM130500 13012G17KT 5SM -FZDZ BR OVC003
     FM131000 13012G17KT 3SM -FZDZ BR OVC003
     FM131500 14014G21KT 2SM BR OVC006=



000
FTUS43 KGLD 121739
TAFGLD
TAF
KGLD 121739Z 1218/1318 11008KT P6SM OVC100
     FM122300 10009KT P6SM BKN015
     FM130100 11010KT 6SM BR OVC008
     FM130400 13012KT 3SM -FZDZ BR OVC003
     FM130900 16015KT 2SM BR OVC003
     FM131600 17013KT P6SM BKN015=



000
FTUS43 KGLD 121604 AAB
TAFGLD
TAF AMD
KGLD 121604Z 1216/1312 VRB05KT P6SM SCT090
     FM121800 11007KT P6SM SCT015 BKN090
     FM130300 14011KT 5SM BR OVC025
     FM130600 15011KT 1SM -FZDZ BR BKN005=



000
FTUS43 KGLD 121601 AAA
TAFMCK
TAF AMD
KMCK 121601Z 1216/1312 03008KT P6SM BKN010
     FM121800 05005KT P6SM BKN015
     FM122100 09008KT P6SM BKN025
     FM130000 11005KT 5SM BR OVC007
     FM130300 12008KT 2SM -FZDZ BR OVC004=



000
FTUS43 KGLD 121121
TAFMCK
TAF
KMCK 121121Z 1212/1312 32008KT P6SM SCT250
     FM121500 03008KT 5SM BR BKN010
     FM121800 05005KT P6SM BKN015
     FM122100 09008KT P6SM BKN025
     FM130000 11005KT 5SM BR OVC007
     FM130300 12008KT 2SM -FZDZ BR OVC004=



000
FTUS43 KGLD 121121
TAFGLD
TAF
KGLD 121121Z 1212/1312 27005KT P6SM SCT250
     FM121600 04006KT P6SM SCT120
     FM122000 11007KT P6SM SCT050
     FM130300 14011KT 5SM BR OVC025
     FM130600 15011KT 1SM -FZDZ BR BKN005=



000
FTUS43 KGLD 121121
TAFMCK
TAF
KMCK 121121Z 1212/1312 32008KT P6SM SCT250
     FM121500 03008KT 5SM BR BKN010
     FM121800 05005KT P6SM BKN015
     FM122100 09008KT P6SM BKN025
     FM130000 11005KT 5SM BR OVC007
     FM130300 12008KT 2SM -FZDZ BR OVC004=



000
FTUS43 KGLD 121121
TAFGLD
TAF
KGLD 121121Z 1212/1312 27005KT P6SM SCT250
     FM121600 04006KT P6SM SCT120
     FM122000 11007KT P6SM SCT050
     FM130300 14011KT 5SM BR OVC025
     FM130600 15011KT 1SM -FZDZ BR BKN005=



000
FTUS43 KGLD 121121
TAFMCK
TAF
KMCK 121121Z 1212/1312 32008KT P6SM SCT250
     FM121500 03008KT 5SM BR BKN010
     FM121800 05005KT P6SM BKN015
     FM122100 09008KT P6SM BKN025
     FM130000 11005KT 5SM BR OVC007
     FM130300 12008KT 2SM -FZDZ BR OVC004=



000
FTUS43 KGLD 120524
TAFMCK
TAF
KMCK 120524Z 1206/1306 32011KT P6SM BKN250
     FM121100 34005KT P6SM BKN015
     FM121300 34005KT 3SM BR BKN007
     FM121400 36005KT 1SM BR OVC003
     FM121700 05005KT P6SM SCT007 OVC020
     FM130000 07005KT 5SM BR OVC007
     FM130300 12008KT 2SM -FZDZ BR OVC004=



000
FTUS43 KGLD 120524
TAFMCK
TAF
KMCK 120524Z 1206/1306 32011KT P6SM BKN250
     FM121100 34005KT P6SM BKN015
     FM121300 34005KT 3SM BR BKN007
     FM121400 36005KT 1SM BR OVC003
     FM121700 05005KT P6SM SCT007 OVC020
     FM130000 07005KT 5SM BR OVC007
     FM130300 12008KT 2SM -FZDZ BR OVC004=



000
FTUS43 KGLD 120524
TAFGLD
TAF
KGLD 120524Z 1206/1306 30009KT P6SM BKN250
     FM121800 07006KT P6SM OVC090
     FM122000 13007KT P6SM OVC015
     FM130100 09008KT 3SM BR OVC007
     FM130300 13009KT 1SM BR OVC004=



000
FTUS43 KGLD 112327
TAFGLD
TAF
KGLD 112327Z 1200/1224 34009KT P6SM SCT250
     FM121800 01005KT 5SM BR OVC015
     FM122100 09008KT 4SM BR OVC007=



000
FTUS43 KGLD 112327
TAFMCK
TAF
KMCK 112327Z 1200/1224 VRB03KT P6SM SCT250
     FM120800 32008KT P6SM BKN200
     FM121100 34005KT 4SM BR BKN015
     FM121500 33005KT 1SM BR OVC004
     FM121900 05005KT 5SM BR OVC007
     FM122100 07005KT P6SM OVC015=



000
FTUS43 KGLD 112327
TAFGLD
TAF
KGLD 112327Z 1200/1224 34009KT P6SM SCT250
     FM121800 01005KT 5SM BR OVC015
     FM122100 09008KT 4SM BR OVC007=



000
FTUS43 KGLD 112327
TAFMCK
TAF
KMCK 112327Z 1200/1224 VRB03KT P6SM SCT250
     FM120800 32008KT P6SM BKN200
     FM121100 34005KT 4SM BR BKN015
     FM121500 33005KT 1SM BR OVC004
     FM121900 05005KT 5SM BR OVC007
     FM122100 07005KT P6SM OVC015=



000
FTUS43 KGLD 111735 AAC
TAFGLD
TAF AMD
KGLD 111735Z 1118/1218 25009KT P6SM SCT200
     FM112000 28011KT P6SM SCT250
     FM112200 31009KT P6SM SCT250
     FM121700 01005KT P6SM SCT100=



000
FTUS43 KGLD 111735 AAC
TAFMCK
TAF AMD
KMCK 111735Z 1118/1218 17010KT 6SM BR SCT003
     FM111900 23007KT P6SM SCT010
     FM112100 27009KT P6SM SCT200
     FM120800 32008KT P6SM SCT200
     FM121100 34005KT P6SM BKN010=



000
FTUS43 KGLD 111538 AAB
TAFMCK
TAF AMD
KMCK 111538Z 1116/1212 VRB06KT 1/4SM FZFG OVC002
     FM111700 28007KT P6SM SCT150
     FM121100 30008KT P6SM OVC200=



000
FTUS43 KGLD 111410 AAA
TAFMCK
TAF AMD
KMCK 111410Z 1114/1212 VRB06KT 1/4SM FZFG OVC004
     FM111530 VRB06KT 2SM BR BKN007
     FM111700 28007KT P6SM SCT150
     FM121100 30008KT P6SM OVC200=



000
FTUS43 KGLD 111120
TAFGLD
TAF
KGLD 111120Z 1112/1212 24011KT P6SM FEW250
     FM112000 32012G20KT P6SM SCT250
     FM120000 31007KT P6SM SKC=



000
FTUS43 KGLD 111120
TAFMCK
TAF
KMCK 111120Z 1112/1212 35006KT P6SM SKC
      TEMPO 1112/1115 6SM BR BKN007
     FM111600 28007KT P6SM SCT150=



000
FTUS43 KGLD 110525
TAFGLD
TAF
KGLD 110525Z 1106/1206 30010KT P6SM SKC
     FM111500 28007KT P6SM SCT150
     FM120000 29007KT P6SM SKC=



000
FTUS43 KGLD 110525
TAFMCK
TAF
KMCK 110525Z 1106/1206 35006KT P6SM SKC
     FM111100 33005KT 2SM BR OVC020
     FM111400 27004KT 3SM BR BKN025
     FM111600 26008KT P6SM SCT150=



000
FTUS43 KGLD 110525
TAFMCK
TAF
KMCK 110525Z 1106/1206 35006KT P6SM SKC
     FM111100 33005KT 2SM BR OVC020
     FM111400 27004KT 3SM BR BKN025
     FM111600 26008KT P6SM SCT150=



000
FTUS43 KGLD 110525
TAFGLD
TAF
KGLD 110525Z 1106/1206 30010KT P6SM SKC
     FM111500 28007KT P6SM SCT150
     FM120000 29007KT P6SM SKC=



000
FTUS43 KGLD 110525
TAFMCK
TAF
KMCK 110525Z 1106/1206 35006KT P6SM SKC
     FM111100 33005KT 2SM BR OVC020
     FM111400 27004KT 3SM BR BKN025
     FM111600 26008KT P6SM SCT150=



000
FTUS43 KGLD 102323
TAFMCK
TAF
KMCK 102323Z 1100/1124 30009KT P6SM SKC
     FM110800 33005KT 2SM BR OVC020
     FM111400 27004KT 3SM BR BKN025
     FM111700 25007KT P6SM SCT120=



000
FTUS43 KGLD 102323
TAFGLD
TAF
KGLD 102323Z 1100/1124 30010KT P6SM SKC=



000
FTUS43 KGLD 102323
TAFMCK
TAF
KMCK 102323Z 1100/1124 30009KT P6SM SKC
     FM110800 33005KT 2SM BR OVC020
     FM111400 27004KT 3SM BR BKN025
     FM111700 25007KT P6SM SCT120=



000
FTUS43 KGLD 102323
TAFGLD
TAF
KGLD 102323Z 1100/1124 30010KT P6SM SKC=



000
FTUS43 KGLD 102323
TAFMCK
TAF
KMCK 102323Z 1100/1124 30009KT P6SM SKC
     FM110800 33005KT 2SM BR OVC020
     FM111400 27004KT 3SM BR BKN025
     FM111700 25007KT P6SM SCT120=



000
FTUS43 KGLD 102045 AAA
TAFGLD
TAF AMD
KGLD 102045Z 1021/1118 30012KT P6SM SKC
     FM111200 27007KT P6SM FEW250=



000
FTUS43 KGLD 101728
TAFMCK
TAF
KMCK 101728Z 1018/1118 29013G19KT P6SM SKC
     FM110000 32008KT P6SM SKC
     FM111200 24004KT P6SM SCT020=



000
FTUS43 KGLD 101728
TAFGLD
TAF
KGLD 101728Z 1018/1118 31015G23KT P6SM SKC
     FM110000 30010KT P6SM SKC
     FM111200 27007KT P6SM FEW250=



000
FTUS43 KGLD 101120
TAFMCK
TAF
KMCK 101120Z 1012/1112 27009KT P6SM SKC WS020/31035KT
     FM101700 29012G17KT P6SM SKC
     FM110000 32008KT P6SM SKC
     FM111000 30004KT P6SM SCT008 SCT250=



000
FTUS43 KGLD 101120
TAFGLD
TAF
KGLD 101120Z 1012/1112 27013G19KT P6SM SKC WS020/32040KT
     FM101700 30015G23KT P6SM SKC
     FM110000 32010KT P6SM SKC
     FM111100 29007KT P6SM FEW250=



    US Dept of Commerce
    National Oceanic and Atmospheric Administration
    National Weather Service
    1325 East West Highway
    Silver Spring, MD 20910
    Page Author: NWS Internet Services Team
Disclaimer
Information Quality
Credits
Glossary
Privacy Policy
Freedom of Information Act (FOIA)
About Us
Career Opportunities